Time;durP1;ratioP1;P1;durP2;ratioP2;P2;SDS_P1;SDS_P2;PMS_P1;PMS_P2;Temp;Humidity;BMP_temperature;BMP_pressure;BME280_temperature;BME280_humidity;BME280_pressure;Samples;Min_cycle;Max_cycle;Signal;HPM_P1;HPM_P2
2021/01/09 00:00:50;;;;;;;26.50;14.50;;;1.90;99.90;;;;;;4958932;28;20130;-79
2021/01/09 00:03:16;;;;;;;26.15;14.55;;;1.90;99.90;;;;;;4956571;29;20130;-78
2021/01/09 00:05:42;;;;;;;24.55;13.68;;;1.80;99.90;;;;;;4956590;28;20136;-79
2021/01/09 00:08:10;;;;;;;27.80;14.73;;;1.80;99.90;;;;;;4955325;29;20114;-78
2021/01/09 00:10:36;;;;;;;29.98;15.18;;;1.80;99.90;;;;;;4949998;28;20533;-79
2021/01/09 00:13:02;;;;;;;26.83;13.88;;;1.80;99.90;;;;;;4946127;29;20511;-79
2021/01/09 00:15:29;;;;;;;29.60;14.43;;;1.80;99.90;;;;;;4956470;29;20055;-79
2021/01/09 00:17:55;;;;;;;27.20;14.73;;;1.90;99.90;;;;;;4948886;29;20079;-80
2021/01/09 00:20:23;;;;;;;29.77;14.18;;;1.90;99.90;;;;;;4940076;29;20166;-79
2021/01/09 00:22:50;;;;;;;24.75;13.48;;;1.90;99.90;;;;;;4949819;29;20084;-80
2021/01/09 00:25:17;;;;;;;32.72;15.43;;;1.90;99.90;;;;;;4945655;28;20479;-78
2021/01/09 00:27:44;;;;;;;32.22;14.93;;;1.90;99.90;;;;;;4955342;29;20546;-79
2021/01/09 00:30:11;;;;;;;26.77;15.13;;;1.80;99.90;;;;;;4958756;29;20088;-79
2021/01/09 00:32:38;;;;;;;31.25;15.77;;;1.80;99.90;;;;;;4956434;28;20505;-78
2021/01/09 00:35:05;;;;;;;30.10;15.25;;;1.80;99.90;;;;;;4956882;28;20138;-78
2021/01/09 00:37:31;;;;;;;28.63;15.23;;;1.80;99.90;;;;;;4955285;28;20051;-79
2021/01/09 00:39:58;;;;;;;33.15;15.63;;;1.80;99.90;;;;;;4942993;29;20129;-79
2021/01/09 00:42:25;;;;;;;26.20;15.93;;;1.80;99.90;;;;;;4950787;29;20138;-78
2021/01/09 00:44:52;;;;;;;25.63;14.18;;;1.80;99.90;;;;;;4950333;29;20098;-79
2021/01/09 00:47:18;;;;;;;27.50;14.27;;;1.80;99.90;;;;;;4944831;28;20083;-79
2021/01/09 00:49:45;;;;;;;27.60;16.02;;;1.80;99.90;;;;;;4948056;29;20126;-79
2021/01/09 00:52:11;;;;;;;26.13;15.15;;;1.80;99.90;;;;;;4958885;29;20094;-77
2021/01/09 00:54:37;;;;;;;25.92;15.20;;;1.80;99.90;;;;;;4956577;28;20134;-79
2021/01/09 00:57:04;;;;;;;29.83;16.15;;;1.80;99.90;;;;;;4955688;28;20051;-79
2021/01/09 00:59:32;;;;;;;27.90;15.80;;;1.70;99.90;;;;;;4956961;28;20591;-78
2021/01/09 01:01:58;;;;;;;26.08;16.13;;;1.80;99.90;;;;;;4944613;29;20134;-78
2021/01/09 01:04:25;;;;;;;31.45;15.82;;;1.70;99.90;;;;;;4959876;29;20075;-79
2021/01/09 01:06:52;;;;;;;32.83;16.65;;;1.70;99.90;;;;;;4957682;28;20656;-78
2021/01/09 01:09:18;;;;;;;32.45;15.88;;;1.70;99.90;;;;;;4956766;28;20142;-78
2021/01/09 01:11:44;;;;;;;34.55;16.75;;;1.70;99.90;;;;;;4956737;28;20559;-78
2021/01/09 01:14:11;;;;;;;32.90;17.80;;;1.70;99.90;;;;;;4951240;28;20508;-78
2021/01/09 01:16:43;;;;;;;33.97;17.70;;;1.70;99.90;;;;;;4945731;29;20138;-78
2021/01/09 01:19:10;;;;;;;29.93;17.73;;;1.80;99.90;;;;;;4957431;28;20051;-78
2021/01/09 01:21:36;;;;;;;29.77;17.20;;;1.80;99.90;;;;;;4940648;28;20083;-78
2021/01/09 01:24:04;;;;;;;31.05;16.65;;;1.90;99.90;;;;;;4952092;28;20059;-79
2021/01/09 01:26:30;;;;;;;33.17;17.38;;;1.90;99.90;;;;;;4944828;29;20054;-79
2021/01/09 01:28:56;;;;;;;31.02;17.08;;;1.90;99.90;;;;;;4956266;28;20119;-78
2021/01/09 01:31:23;;;;;;;29.15;16.58;;;1.90;99.90;;;;;;4942101;28;20475;-79
2021/01/09 01:33:51;;;;;;;30.30;17.65;;;1.90;99.90;;;;;;4944757;29;20114;-78
2021/01/09 01:36:17;;;;;;;30.83;17.50;;;1.90;99.90;;;;;;4955516;28;20083;-80
2021/01/09 01:38:43;;;;;;;29.80;17.42;;;1.90;99.90;;;;;;4949169;29;20086;-79
2021/01/09 01:41:10;;;;;;;31.67;18.63;;;1.90;99.90;;;;;;4956823;29;20083;-79
2021/01/09 01:43:38;;;;;;;32.45;17.27;;;1.90;99.90;;;;;;4952759;29;20086;-78
2021/01/09 01:46:06;;;;;;;33.22;17.58;;;2.00;99.90;;;;;;4955476;28;20133;-78
2021/01/09 01:48:33;;;;;;;29.27;17.23;;;2.00;99.90;;;;;;4946715;29;20138;-79
2021/01/09 01:51:00;;;;;;;32.25;17.27;;;2.00;99.90;;;;;;4958750;28;20501;-79
2021/01/09 01:53:27;;;;;;;31.52;17.20;;;2.00;99.90;;;;;;4947742;29;20114;-80
2021/01/09 01:55:54;;;;;;;32.83;18.05;;;2.00;99.90;;;;;;4944061;29;20094;-79
2021/01/09 01:58:21;;;;;;;30.40;17.05;;;2.00;99.90;;;;;;4958393;28;20055;-80
2021/01/09 02:00:49;;;;;;;30.85;17.00;;;2.00;99.90;;;;;;4959237;28;20086;-80
2021/01/09 02:03:16;;;;;;;30.50;17.02;;;2.00;99.90;;;;;;4955051;28;20059;-80
2021/01/09 02:05:53;;;;;;;27.95;16.15;;;2.00;99.90;;;;;;4958091;28;20066;-81
2021/01/09 02:08:25;;;;;;;28.60;15.38;;;2.00;99.90;;;;;;4957282;29;20051;-79
2021/01/09 02:10:56;;;;;;;28.57;16.60;;;2.00;99.90;;;;;;4956899;29;20225;-81
2021/01/09 02:13:44;;;;;;;31.83;15.95;;;1.90;99.90;;;;;;4957238;29;20366;-80
2021/01/09 02:16:11;;;;;;;27.55;15.43;;;1.90;99.90;;;;;;4959111;29;20139;-80
2021/01/09 02:18:40;;;;;;;26.42;15.07;;;1.90;99.90;;;;;;4958154;29;20485;-80
2021/01/09 02:21:16;;;;;;;24.75;14.95;;;1.90;99.90;;;;;;4960285;29;20083;-80
2021/01/09 02:23:43;;;;;;;27.50;16.10;;;2.00;99.90;;;;;;4959168;29;20058;-79
2021/01/09 02:26:10;;;;;;;29.70;15.32;;;2.00;99.90;;;;;;4958109;29;20179;-80
2021/01/09 02:28:36;;;;;;;30.45;15.18;;;2.00;99.90;;;;;;4958233;29;20134;-80
2021/01/09 02:31:05;;;;;;;28.25;15.20;;;2.10;99.90;;;;;;4957935;29;20138;-80
2021/01/09 02:33:33;;;;;;;28.40;15.45;;;2.10;99.90;;;;;;4957847;29;20111;-80
2021/01/09 02:36:02;;;;;;;31.48;17.00;;;2.10;99.90;;;;;;4957549;29;20134;-80
2021/01/09 02:38:29;;;;;;;30.25;16.67;;;2.10;99.90;;;;;;4956820;29;20476;-80
2021/01/09 02:40:57;;;;;;;28.77;16.75;;;2.10;99.90;;;;;;4959174;29;20055;-80
2021/01/09 02:43:26;;;;;;;29.08;15.15;;;2.20;99.90;;;;;;4959305;28;20463;-81
2021/01/09 02:45:53;;;;;;;30.13;16.02;;;2.10;99.90;;;;;;4959070;29;20102;-80
2021/01/09 02:48:19;;;;;;;26.27;14.38;;;2.10;99.90;;;;;;4959809;29;20130;-80
2021/01/09 02:50:46;;;;;;;27.23;15.25;;;2.20;99.90;;;;;;4959362;28;20130;-79
2021/01/09 02:53:12;;;;;;;23.33;13.95;;;2.20;99.90;;;;;;4958593;29;20380;-80
2021/01/09 02:55:38;;;;;;;25.65;15.60;;;2.20;99.90;;;;;;4959187;29;20056;-78
2021/01/09 02:58:06;;;;;;;25.92;15.40;;;2.30;99.90;;;;;;4958842;29;20085;-80
2021/01/09 03:00:32;;;;;;;29.45;14.98;;;2.30;99.90;;;;;;4958221;28;20150;-79
2021/01/09 03:02:58;;;;;;;25.80;15.15;;;2.30;99.90;;;;;;4959702;29;20420;-79
2021/01/09 03:05:25;;;;;;;33.08;14.75;;;2.20;99.90;;;;;;4959037;29;20138;-80
2021/01/09 03:07:51;;;;;;;27.73;14.27;;;2.20;99.90;;;;;;4959169;29;20596;-80
2021/01/09 03:10:18;;;;;;;24.95;14.75;;;2.30;99.90;;;;;;4959186;29;20493;-79
2021/01/09 03:12:44;;;;;;;30.23;15.35;;;2.30;99.90;;;;;;4959400;29;20058;-79
2021/01/09 03:15:12;;;;;;;26.90;15.27;;;2.20;99.90;;;;;;4959611;29;20674;-80
2021/01/09 03:17:38;;;;;;;27.10;15.40;;;2.30;99.90;;;;;;4961775;29;20130;-79
2021/01/09 03:20:06;;;;;;;27.45;15.98;;;2.20;99.90;;;;;;4961675;29;20471;-81
2021/01/09 03:22:33;;;;;;;29.00;15.48;;;2.20;99.90;;;;;;4964155;28;20083;-80
2021/01/09 03:24:59;;;;;;;30.80;15.48;;;2.30;99.90;;;;;;4959927;29;20518;-80
2021/01/09 03:27:25;;;;;;;27.73;15.55;;;2.30;99.90;;;;;;4959692;29;20051;-81
2021/01/09 03:29:52;;;;;;;27.60;16.15;;;2.30;99.90;;;;;;4961472;29;20487;-80
2021/01/09 03:32:19;;;;;;;28.38;16.35;;;2.30;99.90;;;;;;4960785;29;20135;-80
2021/01/09 03:34:45;;;;;;;26.88;16.13;;;2.40;99.90;;;;;;4959155;29;20129;-79
2021/01/09 03:37:12;;;;;;;25.88;15.80;;;2.40;99.90;;;;;;4956758;29;20162;-79
2021/01/09 03:39:38;;;;;;;27.35;16.10;;;2.40;99.90;;;;;;4956786;29;20082;-81
2021/01/09 03:42:05;;;;;;;29.40;16.20;;;2.40;99.90;;;;;;4960012;29;20546;-81
2021/01/09 03:44:31;;;;;;;27.52;15.65;;;2.40;99.90;;;;;;4960241;29;20499;-80
2021/01/09 03:46:57;;;;;;;26.83;15.73;;;2.40;99.90;;;;;;4960345;29;20090;-80
2021/01/09 03:49:25;;;;;;;29.88;16.67;;;2.40;99.90;;;;;;4960762;29;20081;-79
2021/01/09 03:51:51;;;;;;;28.05;16.48;;;2.40;99.90;;;;;;4961095;29;20058;-80
2021/01/09 03:54:17;;;;;;;35.22;17.05;;;2.30;99.90;;;;;;4959586;29;20158;-80
2021/01/09 03:56:44;;;;;;;37.22;18.60;;;2.20;99.90;;;;;;4961447;29;20082;-79
2021/01/09 03:59:10;;;;;;;37.33;20.10;;;2.10;99.90;;;;;;4966743;29;20079;-82
2021/01/09 04:01:36;;;;;;;44.70;21.23;;;2.00;99.90;;;;;;4962802;29;20145;-80
2021/01/09 04:04:03;;;;;;;42.35;20.85;;;2.00;99.90;;;;;;4964608;29;20539;-81
2021/01/09 04:06:30;;;;;;;49.35;21.50;;;2.00;99.90;;;;;;4964112;29;20555;-81
2021/01/09 04:08:56;;;;;;;38.65;20.27;;;2.00;99.90;;;;;;4961507;29;20087;-80
2021/01/09 04:11:23;;;;;;;40.33;20.98;;;2.00;99.90;;;;;;4960080;28;20091;-80
2021/01/09 04:13:54;;;;;;;43.55;21.90;;;2.00;99.90;;;;;;4992407;23;20141;-79
2021/01/09 04:16:20;;;;;;;42.03;20.10;;;2.00;99.90;;;;;;4988347;28;20134;-78
2021/01/09 04:18:46;;;;;;;43.72;20.90;;;2.10;99.90;;;;;;4998786;28;20515;-78
2021/01/09 04:21:13;;;;;;;38.72;19.50;;;2.10;99.90;;;;;;4995730;28;20082;-76
2021/01/09 04:23:40;;;;;;;37.60;19.20;;;2.20;99.90;;;;;;4995171;28;20133;-78
2021/01/09 04:26:13;;;;;;;39.20;18.23;;;2.20;99.90;;;;;;4997448;28;20081;-80
2021/01/09 04:28:39;;;;;;;37.58;18.00;;;2.10;99.90;;;;;;4998180;28;20129;-80
2021/01/09 04:31:05;;;;;;;34.80;18.70;;;2.00;99.90;;;;;;4998167;28;20054;-80
2021/01/09 04:33:32;;;;;;;40.88;18.75;;;2.00;99.90;;;;;;4997745;28;20542;-81
2021/01/09 04:35:58;;;;;;;38.50;18.95;;;2.10;99.90;;;;;;4997921;28;20081;-81
2021/01/09 04:38:25;;;;;;;40.95;19.38;;;2.10;99.90;;;;;;4997787;28;20130;-80
2021/01/09 04:40:52;;;;;;;39.10;20.30;;;2.20;99.90;;;;;;4997763;28;20473;-80
2021/01/09 04:43:19;;;;;;;43.50;20.05;;;2.20;99.90;;;;;;4997297;28;20112;-80
2021/01/09 04:45:46;;;;;;;36.58;18.13;;;2.30;99.90;;;;;;4997069;28;20084;-80
2021/01/09 04:48:13;;;;;;;43.30;19.85;;;2.30;99.90;;;;;;4997064;28;20184;-79
2021/01/09 04:50:41;;;;;;;38.28;19.35;;;2.30;99.90;;;;;;4996435;28;20398;-79
2021/01/09 04:53:08;;;;;;;38.22;20.88;;;2.30;99.90;;;;;;4996166;28;20211;-78
2021/01/09 04:55:37;;;;;;;39.13;19.27;;;2.30;99.90;;;;;;4997118;28;20089;-81
2021/01/09 04:58:04;;;;;;;37.72;18.00;;;2.30;99.90;;;;;;4996232;28;20042;-81
2021/01/09 05:00:31;;;;;;;37.17;19.90;;;2.30;99.90;;;;;;4995770;28;20073;-80
2021/01/09 05:02:58;;;;;;;40.25;20.02;;;2.40;99.90;;;;;;4993958;28;20129;-80
2021/01/09 05:05:24;;;;;;;42.70;20.85;;;2.40;99.90;;;;;;4995515;28;20133;-80
2021/01/09 05:07:50;;;;;;;41.88;20.92;;;2.40;99.90;;;;;;4995487;28;20522;-80
2021/01/09 05:10:17;;;;;;;51.70;22.08;;;2.30;99.90;;;;;;4996001;28;20308;-80
2021/01/09 05:12:43;;;;;;;41.70;21.17;;;2.30;99.90;;;;;;4994940;28;20101;-80
2021/01/09 05:15:11;;;;;;;43.08;21.92;;;2.40;99.90;;;;;;4994470;28;20104;-80
2021/01/09 05:17:39;;;;;;;42.33;22.25;;;2.40;99.90;;;;;;4998723;28;20623;-79
2021/01/09 05:20:07;;;;;;;47.17;22.75;;;2.40;99.90;;;;;;4998029;28;20526;-79
2021/01/09 05:22:36;;;;;;;48.22;22.10;;;2.50;99.90;;;;;;4997628;28;20097;-79
2021/01/09 05:25:04;;;;;;;50.58;22.67;;;2.50;99.90;;;;;;4999966;28;20129;-80
2021/01/09 05:27:31;;;;;;;49.80;23.85;;;2.40;99.90;;;;;;4997133;28;20078;-79
2021/01/09 05:29:58;;;;;;;45.97;22.40;;;2.50;99.90;;;;;;5000917;28;20089;-80
2021/01/09 05:32:25;;;;;;;44.40;21.92;;;2.40;99.90;;;;;;4999251;28;20079;-80
2021/01/09 05:34:53;;;;;;;45.45;21.48;;;2.40;99.90;;;;;;4998370;28;20090;-80
2021/01/09 05:37:21;;;;;;;43.45;21.65;;;2.30;99.90;;;;;;4995657;28;20114;-80
2021/01/09 05:39:50;;;;;;;43.63;20.38;;;2.30;99.90;;;;;;4994320;28;20129;-80
2021/01/09 05:42:19;;;;;;;38.13;20.05;;;2.30;99.90;;;;;;4995091;28;20050;-80
2021/01/09 05:44:46;;;;;;;42.03;20.88;;;2.30;99.90;;;;;;4994115;28;20132;-81
2021/01/09 05:47:13;;;;;;;43.33;21.48;;;2.30;99.90;;;;;;4975558;28;20110;-81
2021/01/09 05:49:42;;;;;;;44.92;20.50;;;2.30;99.90;;;;;;4976730;28;20087;-81
2021/01/09 05:52:10;;;;;;;38.65;20.27;;;2.30;99.90;;;;;;5004556;28;20074;-80
2021/01/09 05:54:37;;;;;;;42.08;20.48;;;2.30;99.90;;;;;;5005272;28;20058;-80
2021/01/09 05:57:05;;;;;;;43.55;21.08;;;2.40;99.90;;;;;;5006486;28;20046;-81
2021/01/09 05:59:32;;;;;;;42.25;20.63;;;2.40;99.90;;;;;;4999325;28;20077;-82
2021/01/09 06:02:00;;;;;;;44.55;20.48;;;2.40;99.90;;;;;;4997851;28;20218;-82
2021/01/09 06:04:29;;;;;;;45.55;20.33;;;2.50;99.90;;;;;;4998283;28;20046;-81
2021/01/09 06:07:06;;;;;;;43.45;20.35;;;2.60;99.90;;;;;;4997817;28;20050;-80
2021/01/09 06:09:36;;;;;;;36.97;19.75;;;2.50;99.90;;;;;;4997525;28;20529;-82
2021/01/09 06:12:06;;;;;;;41.33;21.42;;;2.50;99.90;;;;;;4997904;28;20050;-81
2021/01/09 06:14:35;;;;;;;40.65;21.23;;;2.50;99.90;;;;;;4998266;28;20061;-82
2021/01/09 06:17:02;;;;;;;51.00;23.48;;;2.50;99.90;;;;;;4997855;28;20510;-81
2021/01/09 06:19:29;;;;;;;41.75;21.23;;;2.50;99.90;;;;;;5000834;28;20096;-81
2021/01/09 06:21:56;;;;;;;48.58;22.55;;;2.50;99.90;;;;;;5003166;28;20403;-82
2021/01/09 06:24:24;;;;;;;48.00;21.98;;;2.50;99.90;;;;;;5001918;28;20061;-82
2021/01/09 06:26:51;;;;;;;54.83;24.27;;;2.50;99.90;;;;;;4998218;28;20061;-82
2021/01/09 06:29:22;;;;;;;43.50;22.00;;;2.50;99.90;;;;;;4997155;28;20054;-81
2021/01/09 06:31:52;;;;;;;51.83;22.08;;;2.60;99.90;;;;;;4996332;28;20527;-81
2021/01/09 06:34:20;;;;;;;50.78;23.13;;;2.60;99.90;;;;;;4997290;28;20046;-81
2021/01/09 06:36:50;;;;;;;58.47;25.15;;;2.60;99.90;;;;;;5000403;28;20046;-80
2021/01/09 06:39:17;;;;;;;69.97;26.30;;;2.60;99.90;;;;;;4999825;28;20108;-82
2021/01/09 06:41:45;;;;;;;78.65;29.05;;;2.70;99.90;;;;;;5000253;28;20054;-82
2021/01/09 06:44:14;;;;;;;72.07;28.15;;;2.60;99.90;;;;;;5001039;28;20104;-82
2021/01/09 06:46:42;;;;;;;71.80;28.63;;;2.60;99.90;;;;;;5002901;28;20114;-81
2021/01/09 06:49:18;;;;;;;85.57;28.92;;;2.50;99.90;;;;;;5004024;28;20128;-81
2021/01/09 06:51:53;;;;;;;84.78;30.67;;;2.60;99.90;;;;;;4999730;28;20050;-80
2021/01/09 06:54:24;;;;;;;83.68;30.20;;;2.60;99.90;;;;;;4997710;28;20050;-80
2021/01/09 06:57:08;;;;;;;93.07;31.35;;;2.60;99.90;;;;;;4998083;28;20127;-80
2021/01/09 06:59:36;;;;;;;82.70;29.08;;;2.60;99.90;;;;;;5000056;28;20441;-80
2021/01/09 07:02:14;;;;;;;96.30;32.33;;;2.60;99.90;;;;;;4999510;28;20140;-80
2021/01/09 07:04:51;;;;;;;90.00;31.05;;;2.60;99.90;;;;;;4999627;28;20053;-80
2021/01/09 07:07:28;;;;;;;87.32;30.55;;;2.50;99.90;;;;;;5000975;28;20069;-80
2021/01/09 07:09:59;;;;;;;98.78;32.10;;;2.60;99.90;;;;;;5000166;28;20117;-80
2021/01/09 07:12:29;;;;;;;96.00;33.50;;;2.60;99.90;;;;;;5000313;28;20046;-81
2021/01/09 07:15:01;;;;;;;86.15;32.38;;;2.60;99.90;;;;;;5000295;28;20086;-81
2021/01/09 07:17:27;;;;;;;95.70;31.83;;;2.60;99.90;;;;;;5000355;28;20102;-81
2021/01/09 07:19:54;;;;;;;91.47;30.95;;;2.60;99.90;;;;;;4999902;28;20061;-80
2021/01/09 07:22:21;;;;;;;92.10;32.08;;;2.60;99.90;;;;;;4999484;28;20061;-81
2021/01/09 07:24:50;;;;;;;94.20;32.58;;;2.60;99.90;;;;;;5000451;28;20058;-81
2021/01/09 07:27:22;;;;;;;91.88;33.33;;;2.50;99.90;;;;;;4999405;28;20142;-81
2021/01/09 07:29:57;;;;;;;90.47;33.20;;;2.50;99.90;;;;;;4999931;28;20052;-80
2021/01/09 07:32:37;;;;;;;97.93;34.85;;;2.50;99.90;;;;;;5000103;28;20050;-81
2021/01/09 07:35:07;;;;;;;100.43;33.58;;;2.40;99.90;;;;;;5000567;28;20419;-81
2021/01/09 07:37:43;;;;;;;108.88;34.22;;;2.30;99.90;;;;;;5002061;28;20046;-81
2021/01/09 07:40:15;;;;;;;102.00;35.97;;;2.40;99.90;;;;;;5001715;28;20050;-80
2021/01/09 07:42:43;;;;;;;113.10;33.97;;;2.30;99.90;;;;;;5001235;28;20089;-80
2021/01/09 07:45:12;;;;;;;106.05;35.78;;;2.20;99.90;;;;;;5000629;28;20329;-80
2021/01/09 07:47:41;;;;;;;112.85;34.42;;;2.20;99.90;;;;;;4999409;28;20046;-81
2021/01/09 07:50:10;;;;;;;113.82;34.00;;;2.20;99.90;;;;;;5001335;28;20074;-79
2021/01/09 07:52:37;;;;;;;116.70;35.83;;;2.20;99.90;;;;;;5001011;28;20423;-81
2021/01/09 07:55:05;;;;;;;117.18;36.33;;;2.20;99.90;;;;;;5001975;28;20055;-81
2021/01/09 07:57:32;;;;;;;118.30;36.08;;;2.30;99.90;;;;;;5001411;28;20042;-78
2021/01/09 08:00:11;;;;;;;118.10;35.50;;;2.20;99.90;;;;;;5000498;28;20054;-79
2021/01/09 08:02:39;;;;;;;113.82;34.83;;;2.30;99.90;;;;;;4999637;28;20371;-80
2021/01/09 08:05:09;;;;;;;127.80;36.50;;;2.30;99.90;;;;;;5000028;28;20415;-80
2021/01/09 08:07:37;;;;;;;117.95;34.50;;;2.30;99.90;;;;;;5000852;28;20148;-80
2021/01/09 08:10:17;;;;;;;110.03;34.83;;;2.30;99.90;;;;;;5000605;28;20467;-80
2021/01/09 08:12:43;;;;;;;123.78;34.38;;;2.30;99.90;;;;;;4999549;28;20061;-81
2021/01/09 08:15:11;;;;;;;132.18;34.85;;;2.20;99.90;;;;;;5000281;28;20057;-80
2021/01/09 08:17:37;;;;;;;121.60;34.55;;;2.20;99.90;;;;;;5000029;28;20523;-81
2021/01/09 08:20:11;;;;;;;115.22;32.70;;;2.20;99.90;;;;;;5001283;28;20081;-80
2021/01/09 08:22:38;;;;;;;124.35;36.05;;;2.30;99.90;;;;;;5000474;28;20054;-80
2021/01/09 08:25:12;;;;;;;123.55;34.75;;;2.30;99.90;;;;;;5000142;28;20051;-79
2021/01/09 08:27:46;;;;;;;125.18;35.80;;;2.30;99.90;;;;;;5005549;28;20054;-80
2021/01/09 08:30:16;;;;;;;119.75;35.92;;;2.20;99.90;;;;;;5006743;28;20495;-81
2021/01/09 08:32:43;;;;;;;111.90;34.63;;;2.30;99.90;;;;;;5000772;28;20089;-80
2021/01/09 08:35:11;;;;;;;121.05;36.00;;;2.50;99.90;;;;;;4999145;28;20365;-79
2021/01/09 08:37:38;;;;;;;119.72;35.22;;;2.40;99.90;;;;;;4999949;28;20078;-80
2021/01/09 08:40:16;;;;;;;107.28;34.30;;;2.40;99.90;;;;;;5000165;28;20462;-78
2021/01/09 08:43:02;;;;;;;106.85;33.80;;;2.40;99.90;;;;;;4998304;28;20105;-80
2021/01/09 08:45:44;;;;;;;95.05;31.17;;;2.50;99.90;;;;;;4998782;28;20133;-79
2021/01/09 08:48:21;;;;;;;100.72;32.65;;;2.40;99.90;;;;;;4998657;28;20088;-80
2021/01/09 08:51:01;;;;;;;105.05;33.85;;;2.40;99.90;;;;;;4998183;28;20082;-80
2021/01/09 08:53:31;;;;;;;94.63;34.15;;;2.30;99.90;;;;;;4997794;28;20073;-79
2021/01/09 08:56:02;;;;;;;95.43;31.65;;;2.30;99.90;;;;;;4998643;28;20482;-79
2021/01/09 08:58:31;;;;;;;83.95;30.23;;;2.40;99.90;;;;;;4998123;28;20459;-80
2021/01/09 09:01:03;;;;;;;126.13;32.30;;;2.50;99.90;;;;;;5000633;28;20050;-78
2021/01/09 09:03:31;;;;;;;80.75;28.38;;;2.50;99.90;;;;;;4997664;28;20046;-79
2021/01/09 09:06:05;;;;;;;86.45;30.20;;;2.50;99.90;;;;;;4997784;28;20078;-79
2021/01/09 09:08:34;;;;;;;77.22;28.83;;;2.50;99.90;;;;;;4998122;28;20106;-80
2021/01/09 09:11:01;;;;;;;78.03;27.55;;;2.50;99.90;;;;;;4998246;28;20130;-80
2021/01/09 09:13:28;;;;;;;78.43;28.13;;;2.50;99.90;;;;;;4997762;28;20125;-80
2021/01/09 09:15:54;;;;;;;79.25;29.13;;;2.50;99.90;;;;;;4999785;28;20085;-81
2021/01/09 09:18:22;;;;;;;66.75;27.00;;;2.60;99.90;;;;;;5000972;28;20081;-81
2021/01/09 09:20:50;;;;;;;73.35;27.15;;;2.70;99.90;;;;;;5000869;28;20602;-81
2021/01/09 09:23:24;;;;;;;99.55;39.60;;;2.60;99.90;;;;;;5001358;28;20078;-80
2021/01/09 09:26:11;;;;;;;72.28;25.77;;;2.60;99.90;;;;;;5000293;28;20086;-83
2021/01/09 09:28:48;;;;;;;76.93;26.85;;;2.60;99.90;;;;;;5000211;28;20492;-83
2021/01/09 09:31:22;;;;;;;73.75;27.40;;;2.60;99.90;;;;;;4999794;28;20162;-83
2021/01/09 09:34:01;;;;;;;79.32;27.35;;;2.70;99.90;;;;;;4999881;28;20129;-82
2021/01/09 09:36:28;;;;;;;72.38;26.40;;;2.70;99.90;;;;;;5001543;28;20054;-81
2021/01/09 09:38:55;;;;;;;75.70;25.70;;;2.80;99.90;;;;;;5004109;28;20070;-82
2021/01/09 09:41:22;;;;;;;73.78;27.33;;;2.80;99.90;;;;;;5003912;28;20058;-81
2021/01/09 09:43:59;;;;;;;79.95;32.20;;;2.90;99.90;;;;;;5005532;28;20085;-81
2021/01/09 09:46:27;;;;;;;85.28;28.60;;;2.90;99.90;;;;;;5004091;28;20113;-82
2021/01/09 09:49:00;;;;;;;80.85;28.92;;;2.80;99.90;;;;;;4998256;28;20133;-82
2021/01/09 09:51:35;;;;;;;85.72;29.38;;;2.80;99.90;;;;;;4996989;28;20046;-83
2021/01/09 09:54:02;;;;;;;75.55;27.83;;;2.80;99.90;;;;;;4996444;28;20068;-82
2021/01/09 09:56:35;;;;;;;83.07;29.38;;;2.70;99.90;;;;;;5003541;28;20050;-79
2021/01/09 09:59:04;;;;;;;76.60;29.13;;;2.70;99.90;;;;;;5012972;28;20094;-80
2021/01/09 10:01:30;;;;;;;77.95;27.67;;;2.70;99.90;;;;;;5010271;28;20495;-81
2021/01/09 10:03:58;;;;;;;71.65;27.88;;;2.70;99.90;;;;;;5013842;28;20034;-81
2021/01/09 10:06:35;;;;;;;70.35;27.55;;;2.70;99.90;;;;;;5014118;28;20046;-80
2021/01/09 10:09:15;;;;;;;69.97;26.02;;;2.70;99.90;;;;;;5013048;28;20061;-80
2021/01/09 10:11:42;;;;;;;73.07;27.35;;;2.70;99.90;;;;;;5012602;28;20077;-82
2021/01/09 10:14:09;;;;;;;72.38;27.77;;;2.60;99.90;;;;;;5016133;28;20100;-81
2021/01/09 10:16:35;;;;;;;75.15;28.05;;;2.60;99.90;;;;;;5011322;28;20501;-83
2021/01/09 10:19:02;;;;;;;78.68;28.92;;;2.60;99.90;;;;;;5014918;28;20045;-80
2021/01/09 10:21:29;;;;;;;82.20;27.92;;;2.60;99.90;;;;;;5012291;28;20082;-79
2021/01/09 10:23:57;;;;;;;108.18;34.78;;;2.50;99.90;;;;;;5010737;28;20129;-83
2021/01/09 10:26:28;;;;;;;113.55;35.72;;;2.50;99.90;;;;;;5012040;28;20177;-80
2021/01/09 10:28:55;;;;;;;110.28;34.33;;;2.50;99.90;;;;;;5017389;28;20089;-80
2021/01/09 10:31:32;;;;;;;115.70;34.08;;;2.50;99.90;;;;;;5016785;28;20045;-82
2021/01/09 10:33:59;;;;;;;109.57;34.63;;;2.60;99.90;;;;;;5005258;28;20053;-81
2021/01/09 10:36:27;;;;;;;98.50;33.53;;;2.50;99.90;;;;;;5018582;23;20046;-79
2021/01/09 10:38:59;;;;;;;105.07;33.17;;;2.60;99.90;;;;;;4994015;28;20075;-80
2021/01/09 10:41:26;;;;;;;104.18;33.88;;;2.60;99.90;;;;;;5001832;28;20133;-80
2021/01/09 10:43:52;;;;;;;115.85;33.17;;;2.60;99.90;;;;;;5002404;28;20093;-80
2021/01/09 10:46:21;;;;;;;105.05;34.05;;;2.60;99.90;;;;;;5003866;28;20080;-80
2021/01/09 10:48:48;;;;;;;109.30;33.90;;;2.60;99.90;;;;;;5005063;28;20050;-80
2021/01/09 10:51:16;;;;;;;109.28;34.33;;;2.70;99.90;;;;;;5004674;28;20116;-80
2021/01/09 10:53:42;;;;;;;114.20;34.75;;;2.70;99.90;;;;;;5002390;28;20054;-80
2021/01/09 10:56:10;;;;;;;103.13;32.33;;;2.80;99.90;;;;;;5003279;28;20050;-81
2021/01/09 10:58:36;;;;;;;106.60;33.10;;;2.80;99.90;;;;;;5001175;28;20058;-80
2021/01/09 11:01:03;;;;;;;104.47;34.78;;;2.70;99.90;;;;;;5004695;28;20676;-80
2021/01/09 11:03:30;;;;;;;111.15;37.10;;;2.70;99.90;;;;;;5011317;28;20062;-82
2021/01/09 11:05:56;;;;;;;112.63;37.28;;;2.80;99.90;;;;;;5013798;28;20081;-82
2021/01/09 11:08:23;;;;;;;120.20;37.63;;;2.80;99.90;;;;;;4994643;28;20097;-82
2021/01/09 11:10:50;;;;;;;115.18;37.88;;;2.80;99.90;;;;;;5003362;28;20057;-83
2021/01/09 11:13:18;;;;;;;101.07;36.85;;;2.90;99.90;;;;;;5002432;28;20137;-82
2021/01/09 11:15:45;;;;;;;95.85;32.83;;;2.90;99.90;;;;;;5003685;28;20113;-81
2021/01/09 11:18:12;;;;;;;93.38;32.92;;;2.90;99.90;;;;;;5000007;28;20042;-83
2021/01/09 11:20:39;;;;;;;96.07;32.08;;;3.00;99.90;;;;;;5010161;28;20053;-81
2021/01/09 11:23:05;;;;;;;91.03;32.15;;;3.00;99.90;;;;;;5010360;28;20050;-81
2021/01/09 11:25:33;;;;;;;100.75;34.30;;;3.00;99.90;;;;;;5003508;28;20053;-81
2021/01/09 11:27:59;;;;;;;101.32;33.75;;;2.90;99.90;;;;;;5004473;28;20046;-81
2021/01/09 11:30:27;;;;;;;96.53;35.03;;;2.90;99.90;;;;;;5003053;28;20053;-82
2021/01/09 11:32:53;;;;;;;95.07;34.55;;;2.90;99.90;;;;;;5003064;28;20190;-81
2021/01/09 11:35:20;;;;;;;87.45;32.60;;;3.00;99.90;;;;;;5004870;28;20081;-80
2021/01/09 11:37:46;;;;;;;95.35;32.13;;;3.00;99.90;;;;;;5003331;28;20050;-81
2021/01/09 11:40:13;;;;;;;97.97;35.00;;;3.00;99.90;;;;;;5003596;28;20054;-81
2021/01/09 11:42:42;;;;;;;91.85;34.45;;;3.00;99.90;;;;;;5002818;28;20082;-82
2021/01/09 11:45:10;;;;;;;97.95;34.33;;;2.90;99.90;;;;;;5003466;28;20078;-81
2021/01/09 11:47:37;;;;;;;98.72;33.45;;;2.90;99.90;;;;;;5001186;28;20042;-81
2021/01/09 11:50:04;;;;;;;90.47;33.17;;;3.00;99.90;;;;;;5003520;28;20050;-82
2021/01/09 11:52:30;;;;;;;94.30;33.08;;;3.00;99.90;;;;;;5004407;28;20463;-82
2021/01/09 11:54:57;;;;;;;102.18;35.53;;;2.90;99.90;;;;;;5004924;28;20085;-83
2021/01/09 11:57:23;;;;;;;94.45;31.60;;;2.90;99.90;;;;;;5004550;28;20042;-82
2021/01/09 11:59:49;;;;;;;92.10;34.42;;;2.90;99.90;;;;;;5003987;28;20082;-83
2021/01/09 12:02:16;;;;;;;86.07;30.35;;;3.00;99.90;;;;;;5003352;28;20081;-83
2021/01/09 12:04:43;;;;;;;79.90;30.67;;;3.00;99.90;;;;;;5001459;28;20486;-81
2021/01/09 12:07:09;;;;;;;87.63;32.17;;;3.00;99.90;;;;;;5001915;28;20427;-82
2021/01/09 12:09:36;;;;;;;92.13;33.10;;;3.00;99.90;;;;;;5003018;28;20054;-82
2021/01/09 12:12:02;;;;;;;89.05;32.45;;;3.10;99.90;;;;;;5002320;28;20156;-81
2021/01/09 12:14:29;;;;;;;78.03;29.33;;;3.20;99.90;;;;;;5000297;28;20082;-81
2021/01/09 12:16:55;;;;;;;77.78;30.17;;;3.10;99.90;;;;;;5006177;28;20157;-80
2021/01/09 12:19:24;;;;;;;81.50;31.65;;;3.20;99.90;;;;;;5003380;28;20125;-80
2021/01/09 12:21:52;;;;;;;76.78;29.92;;;3.20;99.90;;;;;;4993395;28;20047;-81
2021/01/09 12:24:19;;;;;;;69.22;28.48;;;3.20;99.90;;;;;;4982546;28;20487;-81
2021/01/09 12:26:45;;;;;;;72.55;27.83;;;3.20;99.90;;;;;;5001494;28;20054;-79
2021/01/09 12:29:12;;;;;;;67.38;27.15;;;3.30;99.90;;;;;;5002396;28;20089;-81
2021/01/09 12:31:39;;;;;;;64.05;27.23;;;3.30;99.90;;;;;;5005556;28;20081;-80
2021/01/09 12:34:05;;;;;;;67.85;28.17;;;3.40;99.90;;;;;;5000512;28;20110;-79
2021/01/09 12:36:32;;;;;;;64.80;27.70;;;3.40;99.90;;;;;;5001413;28;20062;-80
2021/01/09 12:38:59;;;;;;;69.55;27.88;;;3.40;99.90;;;;;;5002610;28;20081;-79
2021/01/09 12:41:32;;;;;;;70.35;27.08;;;3.40;99.90;;;;;;5000192;28;20125;-80